createdAt,value
2022-11-29T00:01:08.803Z,45.70
2022-11-29T00:03:37.384Z,45.60
2022-11-29T00:06:06.607Z,45.60
2022-11-29T00:08:34.351Z,45.50
2022-11-29T00:11:06.142Z,45.30
2022-11-29T00:13:35.183Z,45.10
2022-11-29T00:16:04.487Z,45.10
2022-11-29T00:18:32.344Z,45.00
2022-11-29T00:20:59.986Z,45.00
2022-11-29T00:23:27.645Z,44.80
2022-11-29T00:25:55.269Z,44.80
2022-11-29T00:28:22.915Z,44.60
2022-11-29T00:30:51.929Z,44.50
2022-11-29T00:33:19.605Z,44.30
2022-11-29T00:35:47.253Z,44.20
2022-11-29T00:38:14.954Z,44.10
2022-11-29T00:40:42.644Z,44.00
2022-11-29T00:43:10.303Z,43.70
2022-11-29T00:45:37.968Z,43.80
2022-11-29T00:48:07.393Z,43.50
2022-11-29T00:50:35.066Z,43.40
2022-11-29T00:53:02.730Z,43.30
2022-11-29T00:55:30.385Z,43.20
2022-11-29T00:57:58.028Z,43.20
2022-11-29T01:00:25.789Z,43.20
2022-11-29T01:02:53.465Z,43.00
2022-11-29T01:05:22.447Z,42.90
2022-11-29T01:07:50.136Z,42.70
2022-11-29T01:10:17.931Z,42.70
2022-11-29T01:12:45.591Z,43.10
2022-11-29T01:15:13.736Z,42.30
2022-11-29T01:17:41.408Z,42.40
2022-11-29T01:20:10.839Z,42.20
2022-11-29T01:22:39.946Z,42.10
2022-11-29T01:25:08.590Z,42.10
2022-11-29T01:27:36.390Z,42.00
2022-11-29T01:30:04.384Z,41.80
2022-11-29T01:32:32.166Z,41.80
2022-11-29T01:34:59.859Z,41.70
2022-11-29T01:37:29.253Z,41.80
2022-11-29T01:39:58.216Z,41.50
2022-11-29T01:42:25.864Z,41.40
2022-11-29T01:45:02.183Z,41.50
2022-11-29T01:47:29.895Z,41.00
2022-11-29T01:49:57.552Z,41.20
2022-11-29T01:52:26.397Z,41.30
2022-11-29T01:54:56.877Z,41.00
2022-11-29T01:57:26.066Z,41.00
2022-11-29T01:59:55.782Z,41.00
2022-11-29T02:02:25.561Z,40.90
2022-11-29T02:04:53.277Z,40.90
2022-11-29T02:07:20.961Z,40.90
2022-11-29T02:09:48.688Z,40.80
2022-11-29T02:12:21.687Z,40.80
2022-11-29T02:15:06.825Z,40.70
2022-11-29T02:17:37.899Z,40.60
2022-11-29T02:20:43.551Z,40.70
2022-11-29T02:23:22.557Z,40.50
2022-11-29T02:25:58.479Z,40.60
2022-11-29T02:28:58.372Z,40.60
2022-11-29T02:31:49.425Z,40.40
2022-11-29T02:34:29.310Z,40.50
2022-11-29T02:37:11.303Z,40.60
2022-11-29T02:40:15.181Z,40.60
2022-11-29T02:42:58.550Z,40.60
2022-11-29T02:45:38.327Z,40.50
2022-11-29T02:48:14.252Z,40.60
2022-11-29T02:50:45.025Z,40.60
2022-11-29T02:53:15.047Z,40.70
2022-11-29T02:55:44.841Z,40.80
2022-11-29T02:58:17.892Z,40.70
2022-11-29T03:00:50.300Z,40.70
2022-11-29T03:03:21.509Z,40.80
2022-11-29T03:05:53.236Z,40.80
2022-11-29T03:08:24.429Z,40.80
2022-11-29T03:10:59.803Z,40.90
2022-11-29T03:13:37.305Z,40.90
2022-11-29T03:16:08.140Z,40.80
2022-11-29T03:18:38.869Z,41.00
2022-11-29T03:21:14.360Z,41.10
2022-11-29T03:23:44.330Z,41.10
2022-11-29T03:26:14.161Z,41.00
2022-11-29T03:28:44.276Z,41.10
2022-11-29T03:31:14.099Z,41.20
2022-11-29T03:33:47.517Z,41.10
2022-11-29T03:36:19.955Z,41.20
2022-11-29T03:38:48.075Z,41.20
2022-11-29T03:41:20.966Z,41.30
2022-11-29T03:43:51.682Z,41.20
2022-11-29T03:46:22.723Z,41.40
2022-11-29T03:48:52.600Z,41.40
2022-11-29T03:51:24.275Z,41.40
2022-11-29T03:53:52.809Z,41.50
2022-11-29T03:56:26.554Z,41.50
2022-11-29T03:58:56.433Z,41.40
2022-11-29T04:01:35.912Z,41.40
2022-11-29T04:04:29.823Z,41.40
2022-11-29T04:07:05.895Z,41.40
2022-11-29T04:09:53.674Z,41.50
2022-11-29T04:12:44.437Z,41.60
2022-11-29T04:15:54.093Z,41.60
2022-11-29T04:18:38.439Z,41.50
2022-11-29T04:21:30.644Z,41.70
2022-11-29T04:24:35.851Z,41.70
2022-11-29T04:27:38.386Z,41.70
2022-11-29T04:30:15.040Z,41.70
2022-11-29T04:33:15.028Z,41.90
2022-11-29T04:36:07.502Z,41.70
2022-11-29T04:38:47.970Z,41.90
2022-11-29T04:41:32.630Z,41.90
2022-11-29T04:44:08.633Z,42.00
2022-11-29T04:47:00.818Z,41.90
2022-11-29T04:49:58.694Z,41.90
2022-11-29T04:52:42.036Z,42.60
2022-11-29T04:55:22.703Z,42.10
2022-11-29T04:57:56.770Z,42.00
2022-11-29T05:00:25.765Z,42.10
2022-11-29T05:02:56.171Z,42.20
2022-11-29T05:05:30.318Z,42.20
2022-11-29T05:08:04.581Z,42.20
2022-11-29T05:10:34.611Z,42.30
2022-11-29T05:13:07.048Z,42.30
2022-11-29T05:16:07.080Z,42.30
2022-11-29T05:19:04.487Z,42.30
2022-11-29T05:21:37.970Z,42.40
2022-11-29T05:24:12.957Z,42.40
2022-11-29T05:26:44.696Z,42.40
2022-11-29T05:29:13.644Z,42.60
2022-11-29T05:31:57.355Z,42.60
2022-11-29T05:34:43.325Z,42.70
2022-11-29T05:37:17.850Z,42.70
2022-11-29T05:39:54.040Z,42.70
2022-11-29T05:42:37.661Z,42.80
2022-11-29T05:45:08.638Z,42.80
2022-11-29T05:47:42.057Z,42.80
2022-11-29T05:50:12.202Z,42.90
2022-11-29T05:52:45.927Z,43.00
2022-11-29T05:55:20.778Z,42.90
2022-11-29T05:57:52.346Z,43.00
2022-11-29T06:00:20.170Z,43.00
2022-11-29T06:02:54.924Z,43.10
2022-11-29T06:05:25.657Z,43.10
2022-11-29T06:07:54.797Z,43.10
2022-11-29T06:10:24.395Z,43.30
2022-11-29T06:12:57.257Z,43.30
2022-11-29T06:15:49.914Z,43.30
2022-11-29T06:18:26.251Z,43.30
2022-11-29T06:21:02.406Z,43.40
2022-11-29T06:23:42.090Z,43.40
2022-11-29T06:26:17.926Z,43.40
2022-11-29T06:28:52.326Z,43.40
2022-11-29T06:31:21.866Z,43.40
2022-11-29T06:33:56.245Z,43.50
2022-11-29T06:36:25.943Z,43.50
2022-11-29T06:38:53.926Z,43.50
2022-11-29T06:41:22.847Z,43.60
2022-11-29T06:43:51.034Z,43.60
2022-11-29T06:46:25.656Z,43.60
2022-11-29T06:49:02.303Z,43.60
2022-11-29T06:51:32.537Z,43.60
2022-11-29T06:54:04.561Z,43.70
2022-11-29T06:56:36.068Z,43.70
2022-11-29T06:59:06.310Z,43.60
2022-11-29T07:01:37.152Z,43.70
2022-11-29T07:04:16.945Z,43.70
2022-11-29T07:06:45.130Z,43.80
2022-11-29T07:09:15.164Z,43.80
2022-11-29T07:11:43.289Z,43.80
2022-11-29T07:14:11.347Z,43.80
2022-11-29T07:16:42.768Z,43.90
2022-11-29T07:19:16.130Z,43.90
2022-11-29T07:21:49.318Z,43.90
2022-11-29T07:24:23.467Z,43.90
2022-11-29T07:26:59.393Z,44.00
2022-11-29T07:29:31.209Z,44.00
2022-11-29T07:32:04.639Z,44.00
2022-11-29T07:34:37.226Z,44.00
2022-11-29T07:37:07.857Z,44.70
2022-11-29T07:39:40.988Z,44.20
2022-11-29T07:42:11.327Z,44.10
2022-11-29T07:44:41.012Z,44.10
2022-11-29T07:47:09.518Z,44.10
2022-11-29T07:49:38.501Z,44.10
2022-11-29T07:52:06.155Z,44.30
2022-11-29T07:54:33.834Z,44.40
2022-11-29T07:57:01.487Z,44.30
2022-11-29T07:59:29.144Z,44.40
2022-11-29T08:01:56.882Z,44.40
2022-11-29T08:04:24.585Z,44.50
2022-11-29T08:06:53.578Z,44.60
2022-11-29T08:09:21.353Z,44.50
2022-11-29T08:11:49.969Z,44.60
2022-11-29T08:14:17.631Z,44.50
2022-11-29T08:16:45.339Z,44.50
2022-11-29T08:19:13.404Z,44.60
2022-11-29T08:21:43.650Z,44.60
2022-11-29T08:24:12.914Z,44.70
2022-11-29T08:26:40.663Z,44.70
2022-11-29T08:29:08.503Z,44.70
2022-11-29T08:31:36.206Z,44.70
2022-11-29T08:34:05.730Z,44.70
2022-11-29T08:36:33.521Z,44.90
2022-11-29T08:39:08.882Z,44.80
2022-11-29T08:41:38.659Z,44.80
2022-11-29T08:44:06.645Z,44.90
2022-11-29T08:46:52.088Z,44.90
2022-11-29T08:49:19.728Z,45.00
2022-11-29T08:51:47.376Z,45.00
2022-11-29T08:54:14.089Z,45.00
2022-11-29T08:57:23.537Z,44.90
2022-11-29T08:59:30.708Z,45.00
2022-11-29T09:01:58.395Z,45.00
2022-11-29T09:04:26.065Z,45.00
2022-11-29T09:06:53.703Z,45.10
2022-11-29T09:09:21.880Z,45.20
2022-11-29T09:11:50.856Z,45.20
2022-11-29T09:14:19.196Z,45.10
2022-11-29T09:16:46.952Z,45.20
2022-11-29T09:19:15.082Z,45.20
2022-11-29T09:21:42.794Z,45.20
2022-11-29T09:24:10.685Z,45.20
2022-11-29T09:26:40.579Z,45.10
2022-11-29T09:29:09.774Z,45.10
2022-11-29T09:31:37.544Z,45.20
2022-11-29T09:34:05.204Z,45.20
2022-11-29T09:36:32.885Z,45.20
2022-11-29T09:39:02.523Z,45.30
2022-11-29T09:41:45.647Z,45.30
2022-11-29T09:44:20.047Z,45.30
2022-11-29T09:46:58.381Z,45.40
2022-11-29T09:49:43.858Z,45.30
2022-11-29T09:52:14.440Z,45.40
2022-11-29T09:54:44.351Z,45.40
2022-11-29T09:57:13.345Z,45.40
2022-11-29T09:59:44.059Z,45.40
2022-11-29T10:02:21.049Z,45.40
2022-11-29T10:04:51.196Z,45.50
2022-11-29T10:07:21.445Z,45.50
2022-11-29T10:09:51.021Z,45.50
2022-11-29T10:12:20.145Z,45.50
2022-11-29T10:14:50.982Z,45.40
2022-11-29T10:17:25.623Z,45.50
2022-11-29T10:19:54.769Z,45.60
2022-11-29T10:22:24.307Z,45.70
2022-11-29T10:24:53.423Z,45.70
2022-11-29T10:27:23.701Z,46.40
2022-11-29T10:29:52.914Z,45.70
2022-11-29T10:32:21.477Z,45.80
2022-11-29T10:34:49.293Z,45.80
2022-11-29T10:37:18.399Z,45.80
2022-11-29T10:39:47.212Z,45.80
2022-11-29T10:42:31.197Z,45.80
2022-11-29T10:45:00.537Z,45.70
2022-11-29T10:47:28.197Z,45.80
2022-11-29T10:49:56.736Z,45.80
2022-11-29T10:52:24.495Z,45.80
2022-11-29T10:54:54.763Z,45.80
2022-11-29T10:57:23.009Z,45.80
2022-11-29T11:00:01.911Z,45.90
2022-11-29T11:02:29.755Z,46.00
2022-11-29T11:04:57.562Z,46.00
2022-11-29T11:07:27.577Z,46.10
2022-11-29T11:09:56.716Z,46.00
2022-11-29T11:12:25.797Z,46.10
2022-11-29T11:14:53.883Z,46.10
2022-11-29T11:17:26.758Z,46.20
2022-11-29T11:19:58.158Z,46.10
2022-11-29T11:22:26.194Z,46.20
2022-11-29T11:24:58.924Z,46.10
2022-11-29T11:27:31.101Z,46.20
2022-11-29T11:29:58.849Z,46.20
2022-11-29T11:32:27.864Z,46.20
2022-11-29T11:34:56.036Z,46.20
2022-11-29T11:37:25.385Z,46.30
2022-11-29T11:39:55.574Z,46.30
2022-11-29T11:42:41.327Z,46.30
2022-11-29T11:45:28.255Z,46.30
2022-11-29T11:47:58.588Z,46.30
2022-11-29T11:50:28.675Z,46.30
2022-11-29T11:52:57.041Z,46.30
2022-11-29T11:55:31.275Z,46.40
2022-11-29T11:58:09.282Z,46.40
2022-11-29T12:03:42.078Z,46.50
2022-11-29T12:06:28.670Z,46.50
2022-11-29T12:08:58.626Z,46.40
2022-11-29T12:11:26.314Z,46.50
2022-11-29T12:13:56.085Z,46.50
2022-11-29T12:16:28.375Z,46.50
2022-11-29T12:19:00.529Z,46.60
2022-11-29T12:21:29.512Z,46.60
2022-11-29T12:23:59.129Z,46.60
2022-11-29T12:26:56.579Z,46.60
2022-11-29T12:29:15.869Z,46.60
2022-11-29T12:31:54.926Z,46.60
2022-11-29T12:34:34.836Z,46.60
2022-11-29T12:37:05.568Z,46.60
2022-11-29T12:39:49.486Z,46.50
2022-11-29T12:42:22.335Z,46.60
2022-11-29T12:44:54.559Z,46.60
2022-11-29T12:47:35.664Z,46.60
2022-11-29T12:50:13.706Z,46.60
2022-11-29T12:52:44.537Z,46.60
2022-11-29T12:55:19.345Z,46.60
2022-11-29T12:57:49.670Z,46.60
2022-11-29T13:00:18.034Z,46.60
2022-11-29T13:03:00.094Z,46.70
2022-11-29T13:05:37.290Z,46.60
2022-11-29T13:08:14.047Z,46.70
2022-11-29T13:10:56.422Z,46.70
2022-11-29T13:13:27.760Z,46.70
2022-11-29T13:15:58.358Z,46.70
2022-11-29T13:18:28.034Z,46.70
2022-11-29T13:20:59.026Z,46.70
2022-11-29T13:23:45.571Z,46.70
2022-11-29T13:26:18.071Z,46.80
2022-11-29T13:28:46.336Z,46.70
2022-11-29T13:31:16.483Z,46.80
2022-11-29T13:33:56.064Z,46.70
2022-11-29T13:36:29.879Z,46.70
2022-11-29T13:39:02.291Z,46.80
2022-11-29T13:41:31.357Z,46.80
2022-11-29T13:44:03.179Z,46.80
2022-11-29T13:46:34.343Z,46.80
2022-11-29T13:49:02.133Z,46.70
2022-11-29T13:51:32.826Z,46.90
2022-11-29T13:54:02.019Z,46.90
2022-11-29T13:56:33.295Z,47.00
2022-11-29T13:59:01.419Z,47.00
2022-11-29T14:01:29.131Z,47.10
2022-11-29T14:04:05.493Z,47.20
2022-11-29T14:06:35.291Z,47.20
2022-11-29T14:09:25.886Z,47.20
2022-11-29T14:11:59.651Z,47.10
2022-11-29T14:14:28.846Z,47.20
2022-11-29T14:16:59.145Z,47.20
2022-11-29T14:19:33.093Z,47.20
2022-11-29T14:22:22.393Z,47.20
2022-11-29T14:25:49.670Z,47.20
2022-11-29T14:28:30.847Z,47.20
2022-11-29T14:31:01.309Z,47.30
2022-11-29T14:33:53.471Z,47.30
2022-11-29T14:36:30.520Z,47.20
2022-11-29T14:39:05.742Z,47.30
2022-11-29T14:41:50.320Z,47.40
2022-11-29T14:44:19.356Z,47.40
2022-11-29T14:46:47.495Z,47.40
2022-11-29T14:49:22.737Z,47.40
2022-11-29T14:52:05.938Z,47.40
2022-11-29T14:54:35.162Z,47.50
2022-11-29T14:57:36.102Z,47.50
2022-11-29T15:00:04.267Z,47.40
2022-11-29T15:02:33.562Z,47.40
2022-11-29T15:05:12.461Z,47.50
2022-11-29T15:07:44.211Z,47.40
2022-11-29T15:10:19.003Z,47.50
2022-11-29T15:12:46.668Z,48.10
2022-11-29T15:15:28.798Z,47.50
2022-11-29T15:17:58.841Z,47.60
2022-11-29T15:20:32.701Z,47.50
2022-11-29T15:23:01.338Z,47.60
2022-11-29T15:25:31.733Z,47.60
2022-11-29T15:28:00.265Z,47.50
2022-11-29T15:30:29.722Z,47.60
2022-11-29T15:32:57.552Z,47.60
2022-11-29T15:35:25.327Z,47.60
2022-11-29T15:37:53.104Z,47.70
2022-11-29T15:40:21.803Z,47.70
2022-11-29T15:42:52.674Z,47.70
2022-11-29T15:45:28.686Z,47.70
2022-11-29T15:47:56.920Z,47.60
2022-11-29T15:50:26.552Z,48.20
2022-11-29T15:52:55.654Z,47.60
2022-11-29T15:55:23.478Z,47.70
2022-11-29T15:57:53.146Z,47.70
2022-11-29T16:00:23.788Z,47.80
2022-11-29T16:02:51.953Z,47.80
2022-11-29T16:05:22.257Z,47.80
2022-11-29T16:07:50.950Z,47.80
2022-11-29T16:10:20.573Z,47.80
2022-11-29T16:12:53.676Z,47.90
2022-11-29T16:15:29.215Z,47.80
2022-11-29T16:17:56.908Z,48.50
2022-11-29T16:20:26.130Z,47.90
2022-11-29T16:23:04.844Z,47.90
2022-11-29T16:25:37.408Z,47.90
2022-11-29T16:28:11.052Z,47.90
2022-11-29T16:30:41.882Z,48.00
2022-11-29T16:33:17.538Z,48.00
2022-11-29T16:35:45.242Z,48.00
2022-11-29T16:38:17.311Z,48.00
2022-11-29T16:40:45.779Z,48.00
2022-11-29T16:43:24.060Z,48.00
2022-11-29T16:46:15.498Z,47.90
2022-11-29T16:48:43.319Z,47.90
2022-11-29T16:51:23.397Z,48.60
2022-11-29T16:53:51.737Z,48.60
2022-11-29T16:56:22.262Z,47.90
2022-11-29T16:59:24.985Z,47.90
2022-11-29T17:01:41.399Z,47.90
2022-11-29T17:04:09.550Z,48.00
2022-11-29T17:06:37.274Z,48.00
2022-11-29T17:09:05.171Z,48.00
2022-11-29T17:11:32.904Z,48.10
2022-11-29T17:14:01.893Z,48.10
2022-11-29T17:16:29.599Z,48.10
2022-11-29T17:18:57.315Z,48.00
2022-11-29T17:21:25.789Z,48.10
2022-11-29T17:23:53.776Z,48.10
2022-11-29T17:26:21.537Z,48.20
2022-11-29T17:28:50.200Z,48.20
2022-11-29T17:31:20.232Z,48.20
2022-11-29T17:33:48.101Z,48.20
2022-11-29T17:36:16.630Z,48.30
2022-11-29T17:38:44.355Z,48.20
2022-11-29T17:41:12.903Z,48.30
2022-11-29T17:43:40.893Z,48.30
2022-11-29T17:46:09.639Z,48.30
2022-11-29T17:48:39.371Z,48.20
2022-11-29T17:51:28.796Z,48.30
2022-11-29T17:53:55.489Z,48.30
2022-11-29T17:56:24.584Z,48.30
2022-11-29T17:58:52.334Z,48.30
2022-11-29T18:01:20.838Z,48.30
2022-11-29T18:03:51.689Z,48.30
2022-11-29T18:06:21.068Z,48.40
2022-11-29T18:08:49.575Z,49.00
2022-11-29T18:11:18.886Z,48.30
2022-11-29T18:13:46.666Z,48.40
2022-11-29T18:16:15.229Z,48.30
2022-11-29T18:18:43.108Z,48.30
2022-11-29T18:21:12.411Z,48.30
2022-11-29T18:23:40.840Z,48.30
2022-11-29T18:26:09.422Z,48.40
2022-11-29T18:28:38.465Z,48.40
2022-11-29T18:31:09.484Z,48.40
2022-11-29T18:33:37.443Z,48.30
2022-11-29T18:36:06.191Z,48.40
2022-11-29T18:38:35.350Z,48.40
2022-11-29T18:41:07.122Z,48.50
2022-11-29T18:43:34.923Z,48.40
2022-11-29T18:46:07.818Z,48.40
2022-11-29T18:48:35.595Z,48.40
2022-11-29T18:51:03.871Z,48.50
2022-11-29T18:53:31.679Z,48.50
2022-11-29T18:56:04.225Z,48.50
2022-11-29T18:58:31.873Z,48.50
2022-11-29T19:01:06.634Z,48.50
2022-11-29T19:03:36.180Z,48.50
2022-11-29T19:06:05.283Z,48.60
2022-11-29T19:08:33.040Z,48.50
2022-11-29T19:11:02.196Z,48.60
2022-11-29T19:13:31.213Z,48.70
2022-11-29T19:15:58.893Z,48.70
2022-11-29T19:18:26.593Z,48.70
2022-11-29T19:20:54.260Z,48.70
2022-11-29T19:23:22.592Z,48.70
2022-11-29T19:25:50.246Z,48.70
2022-11-29T19:28:18.513Z,48.60
2022-11-29T19:30:54.026Z,48.70
2022-11-29T19:33:21.765Z,48.70
2022-11-29T19:35:49.439Z,48.60
2022-11-29T19:38:17.667Z,48.70
2022-11-29T19:40:45.364Z,48.70
2022-11-29T19:43:13.072Z,48.70
2022-11-29T19:45:40.879Z,48.80
2022-11-29T19:48:09.908Z,48.70
2022-11-29T19:50:37.637Z,48.60
2022-11-29T19:53:05.287Z,48.60
2022-11-29T19:55:33.729Z,48.60
2022-11-29T19:58:01.426Z,48.60
2022-11-29T20:00:29.894Z,48.60
2022-11-29T20:02:57.727Z,48.70
2022-11-29T20:05:27.230Z,48.60
2022-11-29T20:07:54.981Z,48.70
2022-11-29T20:10:23.452Z,48.70
2022-11-29T20:12:51.137Z,48.80
2022-11-29T20:15:18.920Z,48.80
2022-11-29T20:17:48.192Z,48.80
2022-11-29T20:20:16.712Z,48.80
2022-11-29T20:22:46.045Z,48.80
2022-11-29T20:25:13.779Z,48.90
2022-11-29T20:27:41.467Z,48.90
2022-11-29T20:30:10.907Z,48.90
2022-11-29T20:32:38.862Z,48.90
2022-11-29T20:35:07.560Z,48.90
2022-11-29T20:37:48.469Z,48.90
2022-11-29T20:40:17.714Z,49.00
2022-11-29T20:42:50.737Z,49.00
2022-11-29T20:45:18.934Z,49.00
2022-11-29T20:47:50.544Z,49.10
2022-11-29T20:50:23.287Z,49.70
2022-11-29T20:53:03.481Z,49.10
2022-11-29T20:55:31.271Z,49.00
2022-11-29T20:57:59.572Z,49.10
2022-11-29T21:00:27.531Z,49.10
2022-11-29T21:02:55.211Z,49.10
2022-11-29T21:05:22.878Z,49.10
2022-11-29T21:07:50.582Z,49.20
2022-11-29T21:10:19.900Z,49.20
2022-11-29T21:12:48.595Z,49.20
2022-11-29T21:15:17.178Z,49.20
2022-11-29T21:17:44.899Z,49.20
2022-11-29T21:20:18.039Z,49.20
2022-11-29T21:22:49.148Z,49.20
2022-11-29T21:25:22.302Z,49.30
2022-11-29T21:27:50.390Z,49.20
2022-11-29T21:30:20.198Z,49.30
2022-11-29T21:32:48.619Z,49.30
2022-11-29T21:35:16.644Z,49.30
2022-11-29T21:37:44.390Z,49.30
2022-11-29T21:40:12.565Z,49.20
2022-11-29T21:42:41.662Z,49.30
2022-11-29T21:45:15.308Z,49.30
2022-11-29T21:47:43.839Z,49.30
2022-11-29T21:50:12.906Z,49.40
2022-11-29T21:52:40.783Z,49.30
2022-11-29T21:55:09.300Z,49.30
2022-11-29T21:57:37.543Z,49.30
2022-11-29T22:00:08.067Z,49.30
2022-11-29T22:02:37.267Z,49.40
2022-11-29T22:05:05.344Z,49.50
2022-11-29T22:07:33.110Z,49.50
2022-11-29T22:10:09.977Z,49.40
2022-11-29T22:12:42.850Z,49.50
2022-11-29T22:15:19.059Z,49.50
2022-11-29T22:17:50.749Z,49.40
2022-11-29T22:20:18.630Z,49.50
2022-11-29T22:22:48.395Z,49.40
2022-11-29T22:25:16.254Z,49.40
2022-11-29T22:27:43.900Z,49.40
2022-11-29T22:30:12.996Z,49.40
2022-11-29T22:32:42.022Z,49.40
2022-11-29T22:35:10.272Z,49.40
2022-11-29T22:37:37.907Z,49.40
2022-11-29T22:40:07.422Z,49.50
2022-11-29T22:42:35.150Z,49.50
2022-11-29T22:45:04.047Z,49.50
2022-11-29T22:47:31.745Z,49.50
2022-11-29T22:50:00.743Z,49.60
2022-11-29T22:52:30.238Z,49.60
2022-11-29T22:55:04.235Z,49.50
2022-11-29T22:57:32.598Z,49.60
2022-11-29T23:00:00.313Z,49.60
2022-11-29T23:02:29.003Z,49.60
2022-11-29T23:04:56.718Z,49.60
2022-11-29T23:07:25.841Z,49.60
2022-11-29T23:09:55.043Z,49.60
2022-11-29T23:12:22.803Z,49.50
2022-11-29T23:14:56.142Z,49.50
2022-11-29T23:17:24.537Z,49.50
2022-11-29T23:20:14.112Z,49.50
2022-11-29T23:22:43.099Z,49.40
2022-11-29T23:25:10.773Z,49.50
2022-11-29T23:27:38.425Z,49.40
2022-11-29T23:30:07.595Z,50.10
2022-11-29T23:32:35.250Z,49.50
2022-11-29T23:35:02.944Z,49.50
2022-11-29T23:37:30.663Z,49.50
2022-11-29T23:39:59.670Z,49.60
2022-11-29T23:42:27.320Z,49.60
2022-11-29T23:44:54.978Z,50.30
2022-11-29T23:47:22.652Z,49.60
2022-11-29T23:49:50.297Z,49.60
2022-11-29T23:52:18.020Z,49.70
2022-11-29T23:54:46.032Z,49.70
2022-11-29T23:57:15.266Z,49.70
2022-11-29T23:59:42.920Z,49.70
